sensor_id;sensor_type;location;lat;lon;timestamp;temperature;humidity
66312;HTU21D;53114;51.138;6.008;2022-10-16T00:01:28;14.07;118.99
66312;HTU21D;53114;51.138;6.008;2022-10-16T00:03:57;14.06;118.99
66312;HTU21D;53114;51.138;6.008;2022-10-16T00:06:24;14.07;118.99
66312;HTU21D;53114;51.138;6.008;2022-10-16T00:08:51;14.05;118.99
66312;HTU21D;53114;51.138;6.008;2022-10-16T00:11:21;14.03;118.99
66312;HTU21D;53114;51.138;6.008;2022-10-16T00:13:50;13.98;118.99
66312;HTU21D;53114;51.138;6.008;2022-10-16T00:16:18;13.92;118.99
66312;HTU21D;53114;51.138;6.008;2022-10-16T00:18:44;13.89;118.99
66312;HTU21D;53114;51.138;6.008;2022-10-16T00:21:22;13.89;118.99
66312;HTU21D;53114;51.138;6.008;2022-10-16T00:24:09;13.90;118.99
66312;HTU21D;53114;51.138;6.008;2022-10-16T00:26:39;13.91;118.99
66312;HTU21D;53114;51.138;6.008;2022-10-16T00:29:08;13.92;118.99
66312;HTU21D;53114;51.138;6.008;2022-10-16T00:31:34;13.93;118.99
66312;HTU21D;53114;51.138;6.008;2022-10-16T00:34:01;13.93;118.99
66312;HTU21D;53114;51.138;6.008;2022-10-16T00:36:27;13.94;118.99
66312;HTU21D;53114;51.138;6.008;2022-10-16T00:38:55;13.93;118.99
66312;HTU21D;53114;51.138;6.008;2022-10-16T00:41:24;13.93;118.99
66312;HTU21D;53114;51.138;6.008;2022-10-16T00:43:57;13.92;118.99
66312;HTU21D;53114;51.138;6.008;2022-10-16T00:49:02;13.90;118.99
66312;HTU21D;53114;51.138;6.008;2022-10-16T00:51:38;13.86;118.99
66312;HTU21D;53114;51.138;6.008;2022-10-16T00:54:15;13.88;118.99
66312;HTU21D;53114;51.138;6.008;2022-10-16T00:56:44;13.90;118.99
66312;HTU21D;53114;51.138;6.008;2022-10-16T00:59:25;13.90;118.99
66312;HTU21D;53114;51.138;6.008;2022-10-16T01:01:53;13.83;118.99
66312;HTU21D;53114;51.138;6.008;2022-10-16T01:04:21;13.82;118.99
66312;HTU21D;53114;51.138;6.008;2022-10-16T01:07:07;13.80;118.99
66312;HTU21D;53114;51.138;6.008;2022-10-16T01:12:58;13.71;118.99
66312;HTU21D;53114;51.138;6.008;2022-10-16T01:15:32;13.74;118.99
66312;HTU21D;53114;51.138;6.008;2022-10-16T01:18:16;13.74;118.99
66312;HTU21D;53114;51.138;6.008;2022-10-16T01:20:50;13.73;118.99
66312;HTU21D;53114;51.138;6.008;2022-10-16T01:28:48;13.68;118.99
66312;HTU21D;53114;51.138;6.008;2022-10-16T01:31:19;13.65;118.99
66312;HTU21D;53114;51.138;6.008;2022-10-16T01:36:45;13.54;118.99
66312;HTU21D;53114;51.138;6.008;2022-10-16T01:39:15;13.48;118.99
66312;HTU21D;53114;51.138;6.008;2022-10-16T01:41:47;13.44;118.99
66312;HTU21D;53114;51.138;6.008;2022-10-16T01:44:26;13.37;118.99
66312;HTU21D;53114;51.138;6.008;2022-10-16T01:46:55;13.34;118.99
66312;HTU21D;53114;51.138;6.008;2022-10-16T01:49:25;13.33;118.99
66312;HTU21D;53114;51.138;6.008;2022-10-16T01:51:56;13.35;118.99
66312;HTU21D;53114;51.138;6.008;2022-10-16T01:54:28;13.35;118.99
66312;HTU21D;53114;51.138;6.008;2022-10-16T01:56:58;13.29;118.99
66312;HTU21D;53114;51.138;6.008;2022-10-16T01:59:26;13.23;118.99
66312;HTU21D;53114;51.138;6.008;2022-10-16T02:02:00;13.19;118.99
66312;HTU21D;53114;51.138;6.008;2022-10-16T02:04:37;13.20;118.99
66312;HTU21D;53114;51.138;6.008;2022-10-16T02:07:06;13.20;118.99
66312;HTU21D;53114;51.138;6.008;2022-10-16T02:09:34;13.19;118.99
66312;HTU21D;53114;51.138;6.008;2022-10-16T02:12:26;13.19;118.99
66312;HTU21D;53114;51.138;6.008;2022-10-16T02:14:53;13.19;118.99
66312;HTU21D;53114;51.138;6.008;2022-10-16T02:17:20;13.25;118.99
66312;HTU21D;53114;51.138;6.008;2022-10-16T02:19:48;13.32;118.99
66312;HTU21D;53114;51.138;6.008;2022-10-16T02:22:23;13.36;118.99
66312;HTU21D;53114;51.138;6.008;2022-10-16T02:25:06;13.38;118.99
66312;HTU21D;53114;51.138;6.008;2022-10-16T02:27:45;13.38;118.99
66312;HTU21D;53114;51.138;6.008;2022-10-16T02:30:23;13.36;118.99
66312;HTU21D;53114;51.138;6.008;2022-10-16T02:32:53;13.34;118.99
66312;HTU21D;53114;51.138;6.008;2022-10-16T02:35:23;13.29;118.99
66312;HTU21D;53114;51.138;6.008;2022-10-16T02:37:51;13.27;118.99
66312;HTU21D;53114;51.138;6.008;2022-10-16T02:40:18;13.26;118.99
66312;HTU21D;53114;51.138;6.008;2022-10-16T02:42:49;13.29;118.99
66312;HTU21D;53114;51.138;6.008;2022-10-16T02:45:18;13.36;118.99
66312;HTU21D;53114;51.138;6.008;2022-10-16T02:47:44;13.40;118.99
66312;HTU21D;53114;51.138;6.008;2022-10-16T02:50:10;13.40;118.99
66312;HTU21D;53114;51.138;6.008;2022-10-16T02:52:38;13.44;118.99
66312;HTU21D;53114;51.138;6.008;2022-10-16T02:55:05;13.44;118.99
66312;HTU21D;53114;51.138;6.008;2022-10-16T02:57:31;13.46;118.99
66312;HTU21D;53114;51.138;6.008;2022-10-16T02:59:57;13.49;118.99
66312;HTU21D;53114;51.138;6.008;2022-10-16T03:02:24;13.51;118.99
66312;HTU21D;53114;51.138;6.008;2022-10-16T03:04:50;13.52;118.99
66312;HTU21D;53114;51.138;6.008;2022-10-16T03:07:16;13.53;118.99
66312;HTU21D;53114;51.138;6.008;2022-10-16T03:09:42;13.52;118.99
66312;HTU21D;53114;51.138;6.008;2022-10-16T03:12:08;13.52;118.99
66312;HTU21D;53114;51.138;6.008;2022-10-16T03:14:34;13.52;118.99
66312;HTU21D;53114;51.138;6.008;2022-10-16T03:17:00;13.52;118.99
66312;HTU21D;53114;51.138;6.008;2022-10-16T03:19:26;13.56;118.99
66312;HTU21D;53114;51.138;6.008;2022-10-16T03:21:52;13.59;118.99
66312;HTU21D;53114;51.138;6.008;2022-10-16T03:24:17;13.56;118.99
66312;HTU21D;53114;51.138;6.008;2022-10-16T03:26:43;13.53;118.99
66312;HTU21D;53114;51.138;6.008;2022-10-16T03:29:09;13.48;118.99
66312;HTU21D;53114;51.138;6.008;2022-10-16T03:31:35;13.45;118.99
66312;HTU21D;53114;51.138;6.008;2022-10-16T03:34:01;13.44;118.99
66312;HTU21D;53114;51.138;6.008;2022-10-16T03:36:27;13.41;118.99
66312;HTU21D;53114;51.138;6.008;2022-10-16T03:38:53;13.39;118.99
66312;HTU21D;53114;51.138;6.008;2022-10-16T03:41:19;13.33;118.99
66312;HTU21D;53114;51.138;6.008;2022-10-16T03:43:45;13.25;118.99
66312;HTU21D;53114;51.138;6.008;2022-10-16T03:46:11;13.19;118.99
66312;HTU21D;53114;51.138;6.008;2022-10-16T03:48:37;13.15;118.99
66312;HTU21D;53114;51.138;6.008;2022-10-16T03:51:03;13.17;118.99
66312;HTU21D;53114;51.138;6.008;2022-10-16T03:53:29;13.19;118.99
66312;HTU21D;53114;51.138;6.008;2022-10-16T03:55:55;13.20;118.99
66312;HTU21D;53114;51.138;6.008;2022-10-16T03:58:20;13.18;118.99
66312;HTU21D;53114;51.138;6.008;2022-10-16T04:00:49;13.20;118.99
66312;HTU21D;53114;51.138;6.008;2022-10-16T04:03:15;13.19;118.99
66312;HTU21D;53114;51.138;6.008;2022-10-16T04:05:41;13.20;118.99
66312;HTU21D;53114;51.138;6.008;2022-10-16T04:08:07;13.21;118.99
66312;HTU21D;53114;51.138;6.008;2022-10-16T04:10:33;13.20;118.99
66312;HTU21D;53114;51.138;6.008;2022-10-16T04:13:00;13.11;118.99
66312;HTU21D;53114;51.138;6.008;2022-10-16T04:15:26;13.07;118.99
66312;HTU21D;53114;51.138;6.008;2022-10-16T04:17:52;13.06;118.99
66312;HTU21D;53114;51.138;6.008;2022-10-16T04:20:19;13.06;118.99
66312;HTU21D;53114;51.138;6.008;2022-10-16T04:22:45;13.03;118.99
66312;HTU21D;53114;51.138;6.008;2022-10-16T04:25:11;13.02;118.99
66312;HTU21D;53114;51.138;6.008;2022-10-16T04:27:38;13.04;118.99
66312;HTU21D;53114;51.138;6.008;2022-10-16T04:30:05;13.07;118.99
66312;HTU21D;53114;51.138;6.008;2022-10-16T04:32:31;13.06;118.99
66312;HTU21D;53114;51.138;6.008;2022-10-16T04:34:57;13.04;118.99
66312;HTU21D;53114;51.138;6.008;2022-10-16T04:37:24;13.02;118.99
66312;HTU21D;53114;51.138;6.008;2022-10-16T04:39:51;13.00;118.99
66312;HTU21D;53114;51.138;6.008;2022-10-16T04:42:18;12.97;118.99
66312;HTU21D;53114;51.138;6.008;2022-10-16T04:44:44;12.97;118.99
66312;HTU21D;53114;51.138;6.008;2022-10-16T04:47:10;13.01;118.99
66312;HTU21D;53114;51.138;6.008;2022-10-16T04:49:36;13.02;118.99
66312;HTU21D;53114;51.138;6.008;2022-10-16T04:52:02;13.02;118.99
66312;HTU21D;53114;51.138;6.008;2022-10-16T04:54:28;13.06;118.99
66312;HTU21D;53114;51.138;6.008;2022-10-16T04:56:54;13.05;118.99
66312;HTU21D;53114;51.138;6.008;2022-10-16T04:59:21;13.08;118.99
66312;HTU21D;53114;51.138;6.008;2022-10-16T05:01:47;13.09;118.99
66312;HTU21D;53114;51.138;6.008;2022-10-16T05:04:13;13.10;118.99
66312;HTU21D;53114;51.138;6.008;2022-10-16T05:06:41;13.10;118.99
66312;HTU21D;53114;51.138;6.008;2022-10-16T05:09:10;13.10;118.99
66312;HTU21D;53114;51.138;6.008;2022-10-16T05:11:36;13.11;118.99
66312;HTU21D;53114;51.138;6.008;2022-10-16T05:14:02;13.12;118.99
66312;HTU21D;53114;51.138;6.008;2022-10-16T05:16:29;13.12;118.99
66312;HTU21D;53114;51.138;6.008;2022-10-16T05:18:56;13.11;118.99
66312;HTU21D;53114;51.138;6.008;2022-10-16T05:21:22;13.14;118.99
66312;HTU21D;53114;51.138;6.008;2022-10-16T05:23:48;13.15;118.99
66312;HTU21D;53114;51.138;6.008;2022-10-16T05:26:14;13.11;118.99
66312;HTU21D;53114;51.138;6.008;2022-10-16T05:28:40;13.10;118.99
66312;HTU21D;53114;51.138;6.008;2022-10-16T05:31:08;13.09;118.99
66312;HTU21D;53114;51.138;6.008;2022-10-16T05:33:34;13.07;118.99
66312;HTU21D;53114;51.138;6.008;2022-10-16T05:36:04;13.03;118.99
66312;HTU21D;53114;51.138;6.008;2022-10-16T05:38:30;13.00;118.99
66312;HTU21D;53114;51.138;6.008;2022-10-16T05:40:56;12.96;118.99
66312;HTU21D;53114;51.138;6.008;2022-10-16T05:43:22;12.95;118.99
66312;HTU21D;53114;51.138;6.008;2022-10-16T05:46:00;12.96;118.99
66312;HTU21D;53114;51.138;6.008;2022-10-16T05:48:26;12.99;118.99
66312;HTU21D;53114;51.138;6.008;2022-10-16T05:50:57;12.99;118.99
66312;HTU21D;53114;51.138;6.008;2022-10-16T05:53:24;12.97;118.99
66312;HTU21D;53114;51.138;6.008;2022-10-16T05:55:55;12.99;118.99
66312;HTU21D;53114;51.138;6.008;2022-10-16T05:58:22;13.04;118.99
66312;HTU21D;53114;51.138;6.008;2022-10-16T06:01:00;13.12;118.99
66312;HTU21D;53114;51.138;6.008;2022-10-16T06:03:27;13.21;118.99
66312;HTU21D;53114;51.138;6.008;2022-10-16T06:05:53;13.24;118.99
66312;HTU21D;53114;51.138;6.008;2022-10-16T06:08:20;13.23;118.99
66312;HTU21D;53114;51.138;6.008;2022-10-16T06:10:47;13.20;118.99
66312;HTU21D;53114;51.138;6.008;2022-10-16T06:13:14;13.19;118.99
66312;HTU21D;53114;51.138;6.008;2022-10-16T06:15:42;13.18;118.99
66312;HTU21D;53114;51.138;6.008;2022-10-16T06:18:08;13.21;118.99
66312;HTU21D;53114;51.138;6.008;2022-10-16T06:20:35;13.22;118.99
66312;HTU21D;53114;51.138;6.008;2022-10-16T06:23:01;13.20;118.99
66312;HTU21D;53114;51.138;6.008;2022-10-16T06:25:30;13.19;118.99
66312;HTU21D;53114;51.138;6.008;2022-10-16T06:27:57;13.15;118.99
66312;HTU21D;53114;51.138;6.008;2022-10-16T06:30:22;13.16;118.99
66312;HTU21D;53114;51.138;6.008;2022-10-16T06:32:48;13.15;118.99
66312;HTU21D;53114;51.138;6.008;2022-10-16T06:35:14;13.14;118.99
66312;HTU21D;53114;51.138;6.008;2022-10-16T06:37:42;13.08;118.99
66312;HTU21D;53114;51.138;6.008;2022-10-16T06:40:08;13.06;118.99
66312;HTU21D;53114;51.138;6.008;2022-10-16T06:42:34;13.05;118.99
66312;HTU21D;53114;51.138;6.008;2022-10-16T06:45:00;13.05;118.99
66312;HTU21D;53114;51.138;6.008;2022-10-16T06:47:27;13.05;118.99
66312;HTU21D;53114;51.138;6.008;2022-10-16T06:49:53;13.05;118.99
66312;HTU21D;53114;51.138;6.008;2022-10-16T06:52:19;13.02;118.99
66312;HTU21D;53114;51.138;6.008;2022-10-16T06:54:44;12.96;118.99
66312;HTU21D;53114;51.138;6.008;2022-10-16T06:57:10;12.93;118.99
66312;HTU21D;53114;51.138;6.008;2022-10-16T06:59:36;12.93;118.99
66312;HTU21D;53114;51.138;6.008;2022-10-16T07:02:02;12.96;118.99
66312;HTU21D;53114;51.138;6.008;2022-10-16T07:04:28;12.94;118.99
66312;HTU21D;53114;51.138;6.008;2022-10-16T07:06:54;12.92;118.99
66312;HTU21D;53114;51.138;6.008;2022-10-16T07:09:20;12.92;118.99
66312;HTU21D;53114;51.138;6.008;2022-10-16T07:11:45;12.94;118.99
66312;HTU21D;53114;51.138;6.008;2022-10-16T07:14:17;12.94;118.99
66312;HTU21D;53114;51.138;6.008;2022-10-16T07:16:43;12.97;118.99
66312;HTU21D;53114;51.138;6.008;2022-10-16T07:19:10;12.99;118.99
66312;HTU21D;53114;51.138;6.008;2022-10-16T07:21:37;13.00;118.99
66312;HTU21D;53114;51.138;6.008;2022-10-16T07:24:06;13.03;118.99
66312;HTU21D;53114;51.138;6.008;2022-10-16T07:26:36;13.06;118.99
66312;HTU21D;53114;51.138;6.008;2022-10-16T07:29:02;13.11;118.99
66312;HTU21D;53114;51.138;6.008;2022-10-16T07:31:29;13.20;118.99
66312;HTU21D;53114;51.138;6.008;2022-10-16T07:33:55;13.22;118.99
66312;HTU21D;53114;51.138;6.008;2022-10-16T07:36:21;13.29;118.99
66312;HTU21D;53114;51.138;6.008;2022-10-16T07:38:47;13.35;118.99
66312;HTU21D;53114;51.138;6.008;2022-10-16T07:41:16;13.41;118.99
66312;HTU21D;53114;51.138;6.008;2022-10-16T07:43:51;13.49;118.99
66312;HTU21D;53114;51.138;6.008;2022-10-16T07:46:19;13.54;118.99
66312;HTU21D;53114;51.138;6.008;2022-10-16T07:48:45;13.60;118.99
66312;HTU21D;53114;51.138;6.008;2022-10-16T07:51:15;13.69;118.99
66312;HTU21D;53114;51.138;6.008;2022-10-16T07:53:41;13.77;118.99
66312;HTU21D;53114;51.138;6.008;2022-10-16T07:56:07;13.90;118.99
66312;HTU21D;53114;51.138;6.008;2022-10-16T07:58:35;14.06;118.99
66312;HTU21D;53114;51.138;6.008;2022-10-16T08:01:10;14.18;118.99
66312;HTU21D;53114;51.138;6.008;2022-10-16T08:03:36;14.32;118.99
66312;HTU21D;53114;51.138;6.008;2022-10-16T08:06:04;14.43;118.99
66312;HTU21D;53114;51.138;6.008;2022-10-16T08:08:30;14.56;118.99
66312;HTU21D;53114;51.138;6.008;2022-10-16T08:10:56;14.72;118.99
66312;HTU21D;53114;51.138;6.008;2022-10-16T08:13:22;15.02;118.99
66312;HTU21D;53114;51.138;6.008;2022-10-16T08:15:48;16.04;118.99
66312;HTU21D;53114;51.138;6.008;2022-10-16T08:18:15;18.22;118.99
66312;HTU21D;53114;51.138;6.008;2022-10-16T08:20:42;20.36;118.99
66312;HTU21D;53114;51.138;6.008;2022-10-16T08:23:11;21.89;118.99
66312;HTU21D;53114;51.138;6.008;2022-10-16T08:25:38;23.13;118.99
66312;HTU21D;53114;51.138;6.008;2022-10-16T08:28:09;24.03;115.60
66312;HTU21D;53114;51.138;6.008;2022-10-16T08:30:35;24.29;113.16
66312;HTU21D;53114;51.138;6.008;2022-10-16T08:33:02;24.31;113.20
66312;HTU21D;53114;51.138;6.008;2022-10-16T08:35:28;24.36;111.42
66312;HTU21D;53114;51.138;6.008;2022-10-16T08:37:54;24.30;111.39
66312;HTU21D;53114;51.138;6.008;2022-10-16T08:40:27;24.44;109.85
66312;HTU21D;53114;51.138;6.008;2022-10-16T08:46:26;23.07;113.01
66312;HTU21D;53114;51.138;6.008;2022-10-16T08:48:57;22.37;116.09
66312;HTU21D;53114;51.138;6.008;2022-10-16T08:51:28;21.99;117.92
66312;HTU21D;53114;51.138;6.008;2022-10-16T08:54:02;21.77;117.90
66312;HTU21D;53114;51.138;6.008;2022-10-16T08:56:29;21.82;117.92
66312;HTU21D;53114;51.138;6.008;2022-10-16T08:58:58;21.43;118.99
66312;HTU21D;53114;51.138;6.008;2022-10-16T09:01:42;20.79;118.99
66312;HTU21D;53114;51.138;6.008;2022-10-16T09:07:38;20.05;118.99
66312;HTU21D;53114;51.138;6.008;2022-10-16T09:15:55;19.90;118.99
66312;HTU21D;53114;51.138;6.008;2022-10-16T09:18:34;20.01;118.99
66312;HTU21D;53114;51.138;6.008;2022-10-16T09:21:20;20.32;118.99
66312;HTU21D;53114;51.138;6.008;2022-10-16T09:23:47;20.65;118.99
66312;HTU21D;53114;51.138;6.008;2022-10-16T09:26:15;20.58;118.99
66312;HTU21D;53114;51.138;6.008;2022-10-16T09:28:42;20.40;118.99
66312;HTU21D;53114;51.138;6.008;2022-10-16T09:31:17;20.53;118.99
66312;HTU21D;53114;51.138;6.008;2022-10-16T09:33:47;20.62;118.99
66312;HTU21D;53114;51.138;6.008;2022-10-16T09:36:14;20.61;118.99
66312;HTU21D;53114;51.138;6.008;2022-10-16T09:38:40;20.40;118.99
66312;HTU21D;53114;51.138;6.008;2022-10-16T09:43:56;20.01;118.99
66312;HTU21D;53114;51.138;6.008;2022-10-16T09:46:34;20.00;118.99
66312;HTU21D;53114;51.138;6.008;2022-10-16T09:51:44;20.39;118.99
66312;HTU21D;53114;51.138;6.008;2022-10-16T09:54:15;20.54;118.99
66312;HTU21D;53114;51.138;6.008;2022-10-16T09:56:42;20.34;118.99
66312;HTU21D;53114;51.138;6.008;2022-10-16T09:59:17;20.17;118.99
66312;HTU21D;53114;51.138;6.008;2022-10-16T10:04:15;20.29;118.99
66312;HTU21D;53114;51.138;6.008;2022-10-16T10:06:46;20.32;118.99
66312;HTU21D;53114;51.138;6.008;2022-10-16T10:09:26;20.36;118.99
66312;HTU21D;53114;51.138;6.008;2022-10-16T10:14:44;20.78;118.99
66312;HTU21D;53114;51.138;6.008;2022-10-16T10:17:16;21.15;118.99
66312;HTU21D;53114;51.138;6.008;2022-10-16T10:19:55;21.70;118.99
66312;HTU21D;53114;51.138;6.008;2022-10-16T10:22:43;22.29;118.99
66312;HTU21D;53114;51.138;6.008;2022-10-16T10:36:01;25.20;93.13
66312;HTU21D;53114;51.138;6.008;2022-10-16T10:44:11;25.07;99.01
66312;HTU21D;53114;51.138;6.008;2022-10-16T10:46:51;24.14;103.39
66312;HTU21D;53114;51.138;6.008;2022-10-16T10:55:38;24.25;110.13
66312;HTU21D;53114;51.138;6.008;2022-10-16T11:01:01;25.45;92.28
66312;HTU21D;53114;51.138;6.008;2022-10-16T11:06:48;23.97;100.01
66312;HTU21D;53114;51.138;6.008;2022-10-16T11:09:21;23.52;99.45
66312;HTU21D;53114;51.138;6.008;2022-10-16T11:12:09;22.82;104.53
66312;HTU21D;53114;51.138;6.008;2022-10-16T11:18:08;22.11;109.96
66312;HTU21D;53114;51.138;6.008;2022-10-16T11:20:50;22.46;115.45
66312;HTU21D;53114;51.138;6.008;2022-10-16T11:23:30;23.45;110.33
66312;HTU21D;53114;51.138;6.008;2022-10-16T11:26:03;24.38;105.18
66312;HTU21D;53114;51.138;6.008;2022-10-16T11:31:32;25.84;93.75
66312;HTU21D;53114;51.138;6.008;2022-10-16T11:34:29;26.58;86.61
66312;HTU21D;53114;51.138;6.008;2022-10-16T11:37:35;27.05;80.51
66312;HTU21D;53114;51.138;6.008;2022-10-16T11:40:23;26.99;74.75
66312;HTU21D;53114;51.138;6.008;2022-10-16T11:43:04;26.06;75.89
66312;HTU21D;53114;51.138;6.008;2022-10-16T11:45:42;24.82;86.48
66312;HTU21D;53114;51.138;6.008;2022-10-16T11:48:23;23.86;96.19
66312;HTU21D;53114;51.138;6.008;2022-10-16T11:53:51;22.69;103.58
66312;HTU21D;53114;51.138;6.008;2022-10-16T11:56:21;22.22;108.11
66312;HTU21D;53114;51.138;6.008;2022-10-16T12:01:40;21.91;110.13
66312;HTU21D;53114;51.138;6.008;2022-10-16T12:04:36;21.77;111.42
66312;HTU21D;53114;51.138;6.008;2022-10-16T12:07:24;21.62;111.95
66312;HTU21D;53114;51.138;6.008;2022-10-16T12:09:53;21.44;113.66
66312;HTU21D;53114;51.138;6.008;2022-10-16T12:15:37;21.24;115.03
66312;HTU21D;53114;51.138;6.008;2022-10-16T12:18:03;21.18;116.09
66312;HTU21D;53114;51.138;6.008;2022-10-16T12:20:32;21.23;118.76
66312;HTU21D;53114;51.138;6.008;2022-10-16T12:23:04;21.35;117.88
66312;HTU21D;53114;51.138;6.008;2022-10-16T12:25:39;21.33;116.51
66312;HTU21D;53114;51.138;6.008;2022-10-16T12:28:17;21.13;117.56
66312;HTU21D;53114;51.138;6.008;2022-10-16T12:30:55;20.87;118.99
66312;HTU21D;53114;51.138;6.008;2022-10-16T12:33:31;20.69;118.99
66312;HTU21D;53114;51.138;6.008;2022-10-16T12:36:05;20.57;118.99
66312;HTU21D;53114;51.138;6.008;2022-10-16T12:38:48;20.50;118.99
66312;HTU21D;53114;51.138;6.008;2022-10-16T12:41:29;20.61;118.99
66312;HTU21D;53114;51.138;6.008;2022-10-16T12:43:56;20.66;118.99
66312;HTU21D;53114;51.138;6.008;2022-10-16T12:49:50;20.65;118.99
66312;HTU21D;53114;51.138;6.008;2022-10-16T12:51:53;20.63;118.99
66312;HTU21D;53114;51.138;6.008;2022-10-16T12:54:25;20.62;118.99
66312;HTU21D;53114;51.138;6.008;2022-10-16T12:59:42;20.60;118.99
66312;HTU21D;53114;51.138;6.008;2022-10-16T13:05:27;20.94;118.99
66312;HTU21D;53114;51.138;6.008;2022-10-16T13:28:07;21.37;116.41
66312;HTU21D;53114;51.138;6.008;2022-10-16T13:30:40;21.35;116.31
66312;HTU21D;53114;51.138;6.008;2022-10-16T13:33:38;21.34;117.26
66312;HTU21D;53114;51.138;6.008;2022-10-16T13:36:04;21.35;118.99
66312;HTU21D;53114;51.138;6.008;2022-10-16T13:38:33;21.32;118.99
66312;HTU21D;53114;51.138;6.008;2022-10-16T13:46:03;21.13;118.99
66312;HTU21D;53114;51.138;6.008;2022-10-16T13:48:31;21.04;118.99
66312;HTU21D;53114;51.138;6.008;2022-10-16T13:50:59;21.02;118.99
66312;HTU21D;53114;51.138;6.008;2022-10-16T13:53:25;21.07;118.99
66312;HTU21D;53114;51.138;6.008;2022-10-16T13:55:53;21.10;118.99
66312;HTU21D;53114;51.138;6.008;2022-10-16T13:58:19;21.15;118.99
66312;HTU21D;53114;51.138;6.008;2022-10-16T14:00:58;21.11;118.99
66312;HTU21D;53114;51.138;6.008;2022-10-16T14:03:26;21.15;118.99
66312;HTU21D;53114;51.138;6.008;2022-10-16T14:05:56;21.22;118.99
66312;HTU21D;53114;51.138;6.008;2022-10-16T14:08:26;21.29;118.99
66312;HTU21D;53114;51.138;6.008;2022-10-16T14:10:56;21.23;118.99
66312;HTU21D;53114;51.138;6.008;2022-10-16T14:13:29;21.08;118.99
66312;HTU21D;53114;51.138;6.008;2022-10-16T14:16:03;20.85;118.99
66312;HTU21D;53114;51.138;6.008;2022-10-16T14:18:30;20.68;118.99
66312;HTU21D;53114;51.138;6.008;2022-10-16T14:21:07;20.65;118.99
66312;HTU21D;53114;51.138;6.008;2022-10-16T14:23:36;20.63;118.99
66312;HTU21D;53114;51.138;6.008;2022-10-16T14:26:27;20.58;118.99
66312;HTU21D;53114;51.138;6.008;2022-10-16T14:29:17;20.47;118.99
66312;HTU21D;53114;51.138;6.008;2022-10-16T14:31:57;20.32;118.99
66312;HTU21D;53114;51.138;6.008;2022-10-16T14:34:33;20.17;118.99
66312;HTU21D;53114;51.138;6.008;2022-10-16T14:37:27;20.09;118.99
66312;HTU21D;53114;51.138;6.008;2022-10-16T14:39:54;19.96;118.99
66312;HTU21D;53114;51.138;6.008;2022-10-16T14:42:23;19.84;118.99
66312;HTU21D;53114;51.138;6.008;2022-10-16T14:44:52;19.70;118.99
66312;HTU21D;53114;51.138;6.008;2022-10-16T14:47:21;19.59;118.99
66312;HTU21D;53114;51.138;6.008;2022-10-16T14:49:51;19.48;118.99
66312;HTU21D;53114;51.138;6.008;2022-10-16T14:52:17;19.43;118.99
66312;HTU21D;53114;51.138;6.008;2022-10-16T14:54:43;19.42;118.99
66312;HTU21D;53114;51.138;6.008;2022-10-16T14:57:19;19.44;118.99
66312;HTU21D;53114;51.138;6.008;2022-10-16T14:59:47;19.51;118.99
66312;HTU21D;53114;51.138;6.008;2022-10-16T15:02:32;19.56;118.99
66312;HTU21D;53114;51.138;6.008;2022-10-16T15:05:15;19.58;118.99
66312;HTU21D;53114;51.138;6.008;2022-10-16T15:07:41;19.54;118.99
66312;HTU21D;53114;51.138;6.008;2022-10-16T15:10:08;19.47;118.99
66312;HTU21D;53114;51.138;6.008;2022-10-16T15:12:34;19.44;118.99
66312;HTU21D;53114;51.138;6.008;2022-10-16T15:15:00;19.40;118.99
66312;HTU21D;53114;51.138;6.008;2022-10-16T15:17:26;19.36;118.99
66312;HTU21D;53114;51.138;6.008;2022-10-16T15:19:52;19.28;118.99
66312;HTU21D;53114;51.138;6.008;2022-10-16T15:22:21;19.21;118.99
66312;HTU21D;53114;51.138;6.008;2022-10-16T15:24:49;19.18;118.99
66312;HTU21D;53114;51.138;6.008;2022-10-16T15:27:14;19.18;118.99
66312;HTU21D;53114;51.138;6.008;2022-10-16T15:29:40;19.17;118.99
66312;HTU21D;53114;51.138;6.008;2022-10-16T15:32:10;19.16;118.99
66312;HTU21D;53114;51.138;6.008;2022-10-16T15:34:36;19.13;118.99
66312;HTU21D;53114;51.138;6.008;2022-10-16T15:37:03;19.10;118.99
66312;HTU21D;53114;51.138;6.008;2022-10-16T15:39:29;19.11;118.99
66312;HTU21D;53114;51.138;6.008;2022-10-16T15:41:55;19.10;118.99
66312;HTU21D;53114;51.138;6.008;2022-10-16T15:44:21;19.06;118.99
66312;HTU21D;53114;51.138;6.008;2022-10-16T15:46:48;19.02;118.99
66312;HTU21D;53114;51.138;6.008;2022-10-16T15:49:14;18.96;118.99
66312;HTU21D;53114;51.138;6.008;2022-10-16T15:51:41;18.91;118.99
66312;HTU21D;53114;51.138;6.008;2022-10-16T15:54:08;18.85;118.99
66312;HTU21D;53114;51.138;6.008;2022-10-16T15:56:34;18.81;118.99
66312;HTU21D;53114;51.138;6.008;2022-10-16T15:59:02;18.76;118.99
66312;HTU21D;53114;51.138;6.008;2022-10-16T16:01:34;18.74;118.99
66312;HTU21D;53114;51.138;6.008;2022-10-16T16:04:00;18.69;118.99
66312;HTU21D;53114;51.138;6.008;2022-10-16T16:06:27;18.61;118.99
66312;HTU21D;53114;51.138;6.008;2022-10-16T16:08:52;18.55;118.99
66312;HTU21D;53114;51.138;6.008;2022-10-16T16:11:19;18.49;118.99
66312;HTU21D;53114;51.138;6.008;2022-10-16T16:13:45;18.40;118.99
66312;HTU21D;53114;51.138;6.008;2022-10-16T16:16:14;18.33;118.99
66312;HTU21D;53114;51.138;6.008;2022-10-16T16:18:42;18.27;118.99
66312;HTU21D;53114;51.138;6.008;2022-10-16T16:21:11;18.20;118.99
66312;HTU21D;53114;51.138;6.008;2022-10-16T16:23:37;18.12;118.99
66312;HTU21D;53114;51.138;6.008;2022-10-16T16:26:29;18.07;118.99
66312;HTU21D;53114;51.138;6.008;2022-10-16T16:28:59;18.00;118.99
66312;HTU21D;53114;51.138;6.008;2022-10-16T16:31:28;17.93;118.99
66312;HTU21D;53114;51.138;6.008;2022-10-16T16:33:54;17.84;118.99
66312;HTU21D;53114;51.138;6.008;2022-10-16T16:36:23;17.77;118.99
66312;HTU21D;53114;51.138;6.008;2022-10-16T16:38:49;17.70;118.99
66312;HTU21D;53114;51.138;6.008;2022-10-16T16:41:20;17.64;118.99
66312;HTU21D;53114;51.138;6.008;2022-10-16T16:43:47;17.54;118.99
66312;HTU21D;53114;51.138;6.008;2022-10-16T16:46:14;17.44;118.99
66312;HTU21D;53114;51.138;6.008;2022-10-16T16:48:41;17.38;118.99
66312;HTU21D;53114;51.138;6.008;2022-10-16T16:51:13;17.32;118.99
66312;HTU21D;53114;51.138;6.008;2022-10-16T16:53:43;17.28;118.99
66312;HTU21D;53114;51.138;6.008;2022-10-16T16:56:12;17.25;118.99
66312;HTU21D;53114;51.138;6.008;2022-10-16T16:58:38;17.26;118.99
66312;HTU21D;53114;51.138;6.008;2022-10-16T17:01:09;17.23;118.99
66312;HTU21D;53114;51.138;6.008;2022-10-16T17:03:35;17.19;118.99
66312;HTU21D;53114;51.138;6.008;2022-10-16T17:06:04;17.16;118.99
66312;HTU21D;53114;51.138;6.008;2022-10-16T17:08:33;17.15;118.99
66312;HTU21D;53114;51.138;6.008;2022-10-16T17:10:59;17.17;118.99
66312;HTU21D;53114;51.138;6.008;2022-10-16T17:13:27;17.16;118.99
66312;HTU21D;53114;51.138;6.008;2022-10-16T17:15:54;17.13;118.99